Time;durP1;ratioP1;P1;durP2;ratioP2;P2;SDS_P1;SDS_P2;PMS_P1;PMS_P2;Temp;Humidity;BMP_temperature;BMP_pressure;BME280_temperature;BME280_humidity;BME280_pressure;Samples;Min_cycle;Max_cycle;Signal;HPM_P1;HPM_P2
2021/03/10 00:01:16;;;;;;;16.58;11.43;;;6.60;99.90;;;;;;5029994;28;20041;-79
2021/03/10 00:03:43;;;;;;;17.17;11.68;;;6.60;99.90;;;;;;5036741;28;20049;-79
2021/03/10 00:06:09;;;;;;;18.45;12.18;;;6.60;99.90;;;;;;5024818;28;20050;-80
2021/03/10 00:08:35;;;;;;;17.67;11.35;;;6.60;99.90;;;;;;5044270;28;20109;-79
2021/03/10 00:11:02;;;;;;;18.35;11.82;;;6.60;99.90;;;;;;5044013;28;20045;-80
2021/03/10 00:13:28;;;;;;;19.60;12.38;;;6.60;99.90;;;;;;5046502;28;20131;-78
2021/03/10 00:15:56;;;;;;;18.75;11.68;;;6.70;99.90;;;;;;5051872;28;20415;-79
2021/03/10 00:18:22;;;;;;;19.80;12.43;;;6.60;99.90;;;;;;5036974;28;20041;-79
2021/03/10 00:20:48;;;;;;;19.20;12.25;;;6.60;99.90;;;;;;5052577;28;20128;-81
2021/03/10 00:23:15;;;;;;;16.10;12.20;;;6.60;99.90;;;;;;5050527;28;20049;-80
2021/03/10 00:25:41;;;;;;;19.15;11.82;;;6.50;99.90;;;;;;5051542;28;20071;-80
2021/03/10 00:28:10;;;;;;;18.85;12.25;;;6.50;99.90;;;;;;5049910;28;20053;-79
2021/03/10 00:30:36;;;;;;;16.00;11.60;;;6.40;99.90;;;;;;5048288;28;20064;-80
2021/03/10 00:33:04;;;;;;;17.90;13.10;;;6.40;99.90;;;;;;5045165;28;20076;-80
2021/03/10 00:35:30;;;;;;;17.88;13.02;;;6.50;99.90;;;;;;5041231;28;20132;-79
2021/03/10 00:38:00;;;;;;;18.25;12.93;;;6.40;99.90;;;;;;5037896;28;20042;-80
2021/03/10 00:40:27;;;;;;;18.63;13.00;;;6.40;99.90;;;;;;5049035;28;20049;-80
2021/03/10 00:42:54;;;;;;;19.40;13.40;;;6.40;99.90;;;;;;5047732;28;20073;-80
2021/03/10 00:45:20;;;;;;;19.90;12.68;;;6.40;99.90;;;;;;5045940;28;20088;-79
2021/03/10 00:47:47;;;;;;;17.20;12.70;;;6.30;99.90;;;;;;5045007;28;20049;-80
2021/03/10 00:50:17;;;;;;;21.65;12.02;;;6.30;99.90;;;;;;5046319;28;20045;-79
2021/03/10 00:52:43;;;;;;;18.55;12.45;;;6.30;99.90;;;;;;5045507;28;20092;-80
2021/03/10 00:55:11;;;;;;;17.67;12.38;;;6.30;99.90;;;;;;5045077;28;20053;-80
2021/03/10 00:57:37;;;;;;;15.27;11.38;;;6.30;99.90;;;;;;5045011;28;20124;-80
2021/03/10 01:00:05;;;;;;;20.25;13.13;;;6.30;99.90;;;;;;5047645;28;20049;-81
2021/03/10 01:02:32;;;;;;;19.75;12.80;;;6.30;99.90;;;;;;5046387;28;20049;-80
2021/03/10 01:04:58;;;;;;;19.38;12.48;;;6.20;99.90;;;;;;5043446;28;20149;-80
2021/03/10 01:07:25;;;;;;;16.90;12.52;;;6.10;99.90;;;;;;5045391;28;20187;-80
2021/03/10 01:09:52;;;;;;;22.15;13.27;;;6.10;99.90;;;;;;5046587;28;20073;-81
2021/03/10 01:12:19;;;;;;;18.75;12.75;;;6.10;99.90;;;;;;5044882;28;20107;-80
2021/03/10 01:14:45;;;;;;;17.35;12.18;;;6.10;99.90;;;;;;5045216;28;20077;-81
2021/03/10 01:17:12;;;;;;;16.20;13.30;;;6.00;99.90;;;;;;5044794;28;20073;-80
2021/03/10 01:19:38;;;;;;;21.77;13.48;;;6.00;99.90;;;;;;5042638;28;20128;-81
2021/03/10 01:22:05;;;;;;;19.73;14.02;;;6.00;99.90;;;;;;5045591;28;20077;-80
2021/03/10 01:24:32;;;;;;;21.13;12.85;;;6.10;99.90;;;;;;5045429;28;20109;-80
2021/03/10 01:26:59;;;;;;;18.95;11.68;;;6.10;99.90;;;;;;5044440;28;20081;-81
2021/03/10 01:29:25;;;;;;;14.73;11.38;;;6.00;99.90;;;;;;5044761;28;20050;-81
2021/03/10 01:31:51;;;;;;;16.60;12.00;;;6.10;99.90;;;;;;5044801;28;20073;-81
2021/03/10 01:34:18;;;;;;;16.80;11.32;;;6.10;99.90;;;;;;5044188;28;20523;-80
2021/03/10 01:36:44;;;;;;;15.45;11.27;;;6.00;99.90;;;;;;5043723;28;20045;-80
2021/03/10 01:39:11;;;;;;;16.65;10.55;;;6.00;99.90;;;;;;5046142;28;20106;-81
2021/03/10 01:41:38;;;;;;;16.08;11.13;;;6.00;99.90;;;;;;5046663;28;20046;-82
2021/03/10 01:44:05;;;;;;;15.80;10.30;;;5.90;99.90;;;;;;5046088;28;20109;-81
2021/03/10 01:46:35;;;;;;;15.02;10.30;;;5.90;99.90;;;;;;5045804;28;20113;-81
2021/03/10 01:49:01;;;;;;;12.43;9.18;;;5.90;99.90;;;;;;5044904;28;20069;-80
2021/03/10 01:51:28;;;;;;;12.88;9.70;;;5.90;99.90;;;;;;5044273;28;20049;-80
2021/03/10 01:53:54;;;;;;;12.43;9.68;;;5.90;99.90;;;;;;5043611;28;20239;-80
2021/03/10 01:56:24;;;;;;;11.32;9.07;;;5.90;99.90;;;;;;5044137;28;20095;-80
2021/03/10 01:58:51;;;;;;;12.90;9.75;;;5.90;99.90;;;;;;5044248;28;20049;-80
2021/03/10 02:01:18;;;;;;;11.35;9.13;;;6.00;99.90;;;;;;5044472;28;20081;-80
2021/03/10 02:03:44;;;;;;;13.40;9.95;;;5.90;99.90;;;;;;5041876;28;20151;-81
2021/03/10 02:06:13;;;;;;;13.05;9.73;;;5.80;99.90;;;;;;5039824;28;20109;-81
2021/03/10 02:08:49;;;;;;;11.82;9.20;;;5.70;99.90;;;;;;5038414;28;20451;-81
2021/03/10 02:11:25;;;;;;;14.07;10.02;;;5.70;99.90;;;;;;5039257;28;20125;-80
2021/03/10 02:14:01;;;;;;;10.93;9.07;;;5.80;99.90;;;;;;5041601;28;20556;-81
2021/03/10 02:16:37;;;;;;;12.48;9.77;;;5.90;99.90;;;;;;5042894;28;20136;-81
2021/03/10 02:19:11;;;;;;;11.77;9.68;;;6.00;99.90;;;;;;5044681;28;20084;-81
2021/03/10 02:21:49;;;;;;;13.43;10.05;;;6.10;99.90;;;;;;5044949;28;20060;-80
2021/03/10 02:24:27;;;;;;;13.52;10.18;;;6.10;99.90;;;;;;5044340;28;20056;-79
2021/03/10 02:27:15;;;;;;;16.17;10.63;;;6.10;99.90;;;;;;5044047;28;20057;-80
2021/03/10 02:29:43;;;;;;;15.40;10.07;;;6.10;99.90;;;;;;5044286;28;20061;-80
2021/03/10 02:32:11;;;;;;;12.85;9.32;;;6.20;99.90;;;;;;5042752;28;20072;-81
2021/03/10 02:34:39;;;;;;;14.57;10.45;;;6.20;99.90;;;;;;5044392;28;20061;-81
2021/03/10 02:37:07;;;;;;;12.60;10.30;;;6.20;99.90;;;;;;5043328;28;20092;-79
2021/03/10 02:39:35;;;;;;;13.88;10.55;;;6.30;99.90;;;;;;5039985;28;20128;-80
2021/03/10 02:42:04;;;;;;;16.42;10.43;;;6.30;99.90;;;;;;5039137;28;20053;-80
2021/03/10 02:44:40;;;;;;;12.98;10.52;;;6.30;99.90;;;;;;5040991;28;20049;-81
2021/03/10 02:47:27;;;;;;;15.40;11.05;;;6.30;99.90;;;;;;5042225;28;20132;-80
2021/03/10 02:50:00;;;;;;;14.65;10.48;;;6.30;99.90;;;;;;5041668;28;20053;-81
2021/03/10 02:52:31;;;;;;;15.18;10.05;;;6.30;99.90;;;;;;5041487;28;20053;-80
2021/03/10 02:54:58;;;;;;;15.43;10.45;;;6.30;99.90;;;;;;5045675;28;20109;-79
2021/03/10 02:57:25;;;;;;;15.10;11.25;;;6.30;99.90;;;;;;5049858;28;20064;-79
2021/03/10 02:59:52;;;;;;;19.10;11.77;;;6.30;99.90;;;;;;5042954;28;20045;-80
2021/03/10 03:02:20;;;;;;;14.88;11.38;;;6.30;99.90;;;;;;5041954;28;20053;-80
2021/03/10 03:04:46;;;;;;;16.25;11.27;;;6.30;99.90;;;;;;5043933;28;20049;-80
2021/03/10 03:07:12;;;;;;;16.10;11.52;;;6.30;99.90;;;;;;5044783;28;20057;-79
2021/03/10 03:09:40;;;;;;;20.33;12.52;;;6.30;99.90;;;;;;5040596;28;20056;-80
2021/03/10 03:12:08;;;;;;;16.25;12.40;;;6.20;99.90;;;;;;5041046;28;20057;-80
2021/03/10 03:14:38;;;;;;;18.40;12.52;;;6.10;99.90;;;;;;5041630;28;20049;-81
2021/03/10 03:17:05;;;;;;;18.05;12.23;;;6.10;99.90;;;;;;5040771;28;20121;-81
2021/03/10 03:19:32;;;;;;;16.45;12.40;;;6.00;99.90;;;;;;5039969;28;20050;-80
2021/03/10 03:22:01;;;;;;;20.30;14.50;;;6.00;99.90;;;;;;5042734;28;20045;-79
2021/03/10 03:24:29;;;;;;;19.98;14.73;;;5.90;99.90;;;;;;5040727;28;20108;-80
2021/03/10 03:26:56;;;;;;;21.75;15.02;;;5.90;99.90;;;;;;5038844;28;20052;-80
2021/03/10 03:29:24;;;;;;;18.90;15.18;;;5.90;99.90;;;;;;5038677;28;20162;-80
2021/03/10 03:31:51;;;;;;;24.52;16.13;;;5.90;99.90;;;;;;5037153;28;20216;-81
2021/03/10 03:34:21;;;;;;;23.73;17.10;;;5.80;99.90;;;;;;5039494;28;20228;-81
2021/03/10 03:36:49;;;;;;;25.45;17.85;;;5.80;99.90;;;;;;5038171;28;20179;-81
2021/03/10 03:39:16;;;;;;;23.65;17.92;;;5.80;99.90;;;;;;5038310;28;20050;-81
2021/03/10 03:41:44;;;;;;;25.05;17.88;;;5.80;99.90;;;;;;5045042;28;20053;-82
2021/03/10 03:44:10;;;;;;;22.85;17.73;;;5.70;99.90;;;;;;5046906;28;20073;-81
2021/03/10 03:46:37;;;;;;;25.55;17.58;;;5.70;99.90;;;;;;5042201;28;20109;-80
2021/03/10 03:49:04;;;;;;;25.98;18.55;;;5.60;99.90;;;;;;5041829;28;20088;-80
2021/03/10 03:51:31;;;;;;;27.38;19.58;;;5.60;99.90;;;;;;5045004;28;20064;-81
2021/03/10 03:54:00;;;;;;;29.08;19.45;;;5.50;99.90;;;;;;5044361;28;20092;-81
2021/03/10 03:56:27;;;;;;;28.85;20.77;;;5.40;99.90;;;;;;5044678;28;20085;-80
2021/03/10 03:58:53;;;;;;;30.35;21.38;;;5.40;99.90;;;;;;5037648;28;20487;-80
2021/03/10 04:01:20;;;;;;;33.30;21.15;;;5.30;99.90;;;;;;5037536;28;20567;-81
2021/03/10 04:03:47;;;;;;;29.55;21.17;;;5.30;99.90;;;;;;5039464;28;20140;-79
2021/03/10 04:06:14;;;;;;;30.45;22.25;;;5.20;99.90;;;;;;5037298;28;20088;-79
2021/03/10 04:08:42;;;;;;;28.02;20.13;;;5.20;99.90;;;;;;5036405;28;20145;-79
2021/03/10 04:11:09;;;;;;;28.23;20.80;;;5.20;99.90;;;;;;5036525;28;20099;-77
2021/03/10 04:13:36;;;;;;;29.05;21.63;;;5.20;99.90;;;;;;5036376;28;20081;-78
2021/03/10 04:16:02;;;;;;;29.55;21.27;;;5.20;99.90;;;;;;5036451;28;20489;-80
2021/03/10 04:18:28;;;;;;;33.08;21.42;;;5.10;99.90;;;;;;5040181;28;20077;-80
2021/03/10 04:20:55;;;;;;;31.80;23.40;;;5.10;99.90;;;;;;5038981;28;20101;-80
2021/03/10 04:23:21;;;;;;;33.13;23.10;;;5.10;99.90;;;;;;5038045;28;20072;-79
2021/03/10 04:25:47;;;;;;;34.47;23.00;;;5.10;99.90;;;;;;5037406;28;20072;-80
2021/03/10 04:28:15;;;;;;;31.95;22.83;;;5.10;99.90;;;;;;5040713;28;20519;-80
2021/03/10 04:30:41;;;;;;;34.90;23.20;;;5.20;99.90;;;;;;5040578;28;20073;-79
2021/03/10 04:33:08;;;;;;;43.50;27.42;;;5.10;99.90;;;;;;5041451;28;20424;-80
2021/03/10 04:35:34;;;;;;;37.78;24.98;;;5.20;99.90;;;;;;5042571;28;20074;-79
2021/03/10 04:38:00;;;;;;;34.20;24.42;;;5.20;99.90;;;;;;5043726;28;20076;-81
2021/03/10 04:40:27;;;;;;;36.00;24.45;;;5.30;99.90;;;;;;5044089;28;20105;-80
2021/03/10 04:42:53;;;;;;;37.10;24.75;;;5.30;99.90;;;;;;5044718;28;20519;-81
2021/03/10 04:45:21;;;;;;;37.60;25.45;;;5.30;99.90;;;;;;5079067;22;20138;-80
2021/03/10 04:47:47;;;;;;;38.53;27.50;;;5.30;99.90;;;;;;5086798;28;20394;-80
2021/03/10 04:50:15;;;;;;;45.75;28.98;;;5.20;99.90;;;;;;5096416;28;20130;-80
2021/03/10 04:52:43;;;;;;;38.55;27.73;;;5.20;99.90;;;;;;5097734;28;20116;-80
2021/03/10 04:55:11;;;;;;;41.47;28.80;;;5.30;99.90;;;;;;5090670;28;20045;-80
2021/03/10 04:57:37;;;;;;;44.35;29.27;;;5.30;99.90;;;;;;5079437;28;20079;-80
2021/03/10 05:00:06;;;;;;;46.10;29.42;;;5.30;99.90;;;;;;5079146;28;20546;-80
2021/03/10 05:02:35;;;;;;;43.60;30.83;;;5.30;99.90;;;;;;5078929;28;20098;-80
2021/03/10 05:05:02;;;;;;;44.58;30.40;;;5.30;99.90;;;;;;5079291;28;20127;-80
2021/03/10 05:07:28;;;;;;;50.55;31.63;;;5.40;99.90;;;;;;5077972;28;20084;-80
2021/03/10 05:09:55;;;;;;;51.42;31.05;;;5.30;99.90;;;;;;5078722;28;20076;-80
2021/03/10 05:12:21;;;;;;;43.25;31.02;;;5.40;99.90;;;;;;5078914;28;20084;-79
2021/03/10 05:14:48;;;;;;;40.33;29.38;;;5.40;99.90;;;;;;5077260;28;20127;-80
2021/03/10 05:17:14;;;;;;;46.67;31.52;;;5.40;99.90;;;;;;5077166;28;20106;-79
2021/03/10 05:19:42;;;;;;;46.70;31.23;;;5.40;99.90;;;;;;5074984;28;20127;-80
2021/03/10 05:22:08;;;;;;;43.90;31.70;;;5.40;99.90;;;;;;5077959;28;20063;-80
2021/03/10 05:24:35;;;;;;;42.65;30.30;;;5.40;99.90;;;;;;5075981;28;20087;-79
2021/03/10 05:27:01;;;;;;;42.42;30.15;;;5.40;99.90;;;;;;5076361;28;20084;-79
2021/03/10 05:29:27;;;;;;;41.42;30.30;;;5.50;99.90;;;;;;5076896;28;20044;-79
2021/03/10 05:31:54;;;;;;;44.10;30.60;;;5.60;99.90;;;;;;5075985;28;20521;-79
2021/03/10 05:34:20;;;;;;;45.78;32.25;;;5.60;99.90;;;;;;5077046;28;20075;-80
2021/03/10 05:36:47;;;;;;;48.70;32.50;;;5.50;99.90;;;;;;5076401;28;20131;-79
2021/03/10 05:39:14;;;;;;;49.45;32.80;;;5.50;99.90;;;;;;5075942;28;20566;-79
2021/03/10 05:41:40;;;;;;;49.97;33.80;;;5.60;99.90;;;;;;5076078;28;20514;-79
2021/03/10 05:44:07;;;;;;;51.20;34.30;;;5.60;99.90;;;;;;5075608;28;20131;-79
2021/03/10 05:46:34;;;;;;;47.53;33.13;;;5.60;99.90;;;;;;5074403;28;20143;-79
2021/03/10 05:49:00;;;;;;;48.33;32.78;;;5.60;99.90;;;;;;5074973;28;20045;-79
2021/03/10 05:51:27;;;;;;;51.55;32.63;;;5.70;99.90;;;;;;5075373;28;20055;-79
2021/03/10 05:53:59;;;;;;;49.92;32.97;;;5.70;99.90;;;;;;5076204;28;20328;-79
2021/03/10 05:56:25;;;;;;;46.72;32.75;;;5.70;99.90;;;;;;5075331;28;20127;-79
2021/03/10 05:58:56;;;;;;;47.05;33.38;;;5.80;99.90;;;;;;5076764;28;20040;-79
2021/03/10 06:01:23;;;;;;;46.50;33.17;;;5.80;99.90;;;;;;5078411;28;20131;-79
2021/03/10 06:03:57;;;;;;;48.42;33.47;;;5.70;99.90;;;;;;5077201;28;20063;-78
2021/03/10 06:06:24;;;;;;;49.70;33.55;;;5.70;99.90;;;;;;5075315;28;20131;-79
2021/03/10 06:08:51;;;;;;;47.67;31.85;;;5.70;99.90;;;;;;5075415;28;20487;-80
2021/03/10 06:11:28;;;;;;;55.42;36.03;;;5.70;99.90;;;;;;5072754;28;20079;-77
2021/03/10 06:13:55;;;;;;;55.55;35.15;;;5.60;99.90;;;;;;5072388;28;20143;-78
2021/03/10 06:16:23;;;;;;;57.95;37.10;;;5.60;99.90;;;;;;5072086;28;20048;-79
2021/03/10 06:18:50;;;;;;;55.63;35.35;;;5.60;99.90;;;;;;5074313;28;20059;-79
2021/03/10 06:21:18;;;;;;;52.95;34.75;;;5.60;99.90;;;;;;5073320;28;20139;-78
2021/03/10 06:23:51;;;;;;;54.75;33.97;;;5.60;99.90;;;;;;5079984;28;20049;-78
2021/03/10 06:26:19;;;;;;;55.40;35.50;;;5.60;99.90;;;;;;5079848;28;20127;-79
2021/03/10 06:28:47;;;;;;;55.13;33.88;;;5.60;99.90;;;;;;5077285;28;20079;-79
2021/03/10 06:31:23;;;;;;;56.85;35.90;;;5.60;99.90;;;;;;5076266;28;20108;-79
2021/03/10 06:33:59;;;;;;;53.35;33.30;;;5.70;99.90;;;;;;5076637;28;20510;-79
2021/03/10 06:36:27;;;;;;;51.15;32.70;;;5.70;99.90;;;;;;5075176;28;20127;-79
2021/03/10 06:38:53;;;;;;;49.72;33.00;;;5.80;99.90;;;;;;5076629;28;20055;-80
2021/03/10 06:41:30;;;;;;;56.00;33.25;;;5.80;99.90;;;;;;5076545;28;20152;-80
2021/03/10 06:43:57;;;;;;;48.15;32.10;;;5.80;99.90;;;;;;5071680;28;20091;-80
2021/03/10 06:46:24;;;;;;;50.40;33.83;;;5.80;99.90;;;;;;5055198;28;20088;-80
2021/03/10 06:48:59;;;;;;;52.53;31.60;;;5.80;99.90;;;;;;5058941;28;20132;-81
2021/03/10 06:51:27;;;;;;;46.67;30.85;;;5.80;99.90;;;;;;5059292;28;20079;-82
2021/03/10 06:53:53;;;;;;;46.03;29.17;;;5.80;99.90;;;;;;5060708;28;20529;-82
2021/03/10 06:56:22;;;;;;;45.15;29.45;;;5.80;99.90;;;;;;5061432;28;20096;-83
2021/03/10 06:59:01;;;;;;;42.20;27.80;;;5.80;99.90;;;;;;5060968;28;20082;-82
2021/03/10 07:01:44;;;;;;;46.03;30.73;;;5.80;99.90;;;;;;5061164;28;20124;-82
2021/03/10 07:04:13;;;;;;;47.25;28.77;;;5.80;99.90;;;;;;5059734;28;20127;-82
2021/03/10 07:06:40;;;;;;;43.95;26.40;;;5.80;99.90;;;;;;5058278;28;20483;-81
2021/03/10 07:09:10;;;;;;;45.50;26.70;;;5.90;99.90;;;;;;5057775;28;20182;-80
2021/03/10 07:11:38;;;;;;;48.97;28.13;;;5.90;99.90;;;;;;5056889;28;20139;-82
2021/03/10 07:14:05;;;;;;;44.03;26.00;;;5.90;99.90;;;;;;5061054;28;20134;-80
2021/03/10 07:16:32;;;;;;;43.38;27.42;;;5.90;99.90;;;;;;5075586;28;20131;-80
2021/03/10 07:18:59;;;;;;;47.25;28.15;;;5.90;99.90;;;;;;5076549;28;20140;-82
2021/03/10 07:21:30;;;;;;;46.08;26.30;;;5.90;99.90;;;;;;5074150;28;20084;-80
2021/03/10 07:24:00;;;;;;;48.85;27.48;;;6.00;99.90;;;;;;5074226;28;20052;-80
2021/03/10 07:26:27;;;;;;;45.88;27.35;;;6.10;99.90;;;;;;5058547;28;20095;-79
2021/03/10 07:28:57;;;;;;;44.10;27.08;;;6.20;99.90;;;;;;5055723;28;20439;-79
2021/03/10 07:31:25;;;;;;;48.92;28.23;;;6.20;99.90;;;;;;5056984;28;20128;-80
2021/03/10 07:33:53;;;;;;;48.83;28.83;;;6.20;99.90;;;;;;5055437;28;20059;-80
2021/03/10 07:36:30;;;;;;;48.53;28.75;;;6.30;99.90;;;;;;5052953;28;20084;-79
2021/03/10 07:38:57;;;;;;;49.22;28.90;;;6.30;99.90;;;;;;5053485;28;20465;-80
2021/03/10 07:41:33;;;;;;;49.58;29.05;;;6.30;99.90;;;;;;5054052;28;20048;-79
2021/03/10 07:43:59;;;;;;;52.08;29.48;;;6.30;99.90;;;;;;5071268;28;20044;-79
2021/03/10 07:46:28;;;;;;;51.15;28.83;;;6.30;99.90;;;;;;5066018;28;20083;-80
2021/03/10 07:48:55;;;;;;;46.78;28.13;;;6.30;99.90;;;;;;5075202;28;20055;-80
2021/03/10 07:51:32;;;;;;;53.88;29.98;;;6.40;99.90;;;;;;5070475;28;20087;-79
2021/03/10 07:53:59;;;;;;;49.40;27.65;;;6.30;99.90;;;;;;5074532;28;20044;-80
2021/03/10 07:56:30;;;;;;;45.47;28.30;;;6.30;99.90;;;;;;5074430;28;20083;-78
2021/03/10 07:59:15;;;;;;;49.35;28.88;;;6.30;99.90;;;;;;5074324;28;20045;-79
2021/03/10 08:01:45;;;;;;;48.83;28.05;;;6.40;99.90;;;;;;5073757;28;20182;-81
2021/03/10 08:04:14;;;;;;;53.20;28.92;;;6.40;99.90;;;;;;5078906;28;20106;-80
2021/03/10 08:06:43;;;;;;;45.22;28.27;;;6.40;99.90;;;;;;5078498;28;20493;-79
2021/03/10 08:09:09;;;;;;;48.97;27.10;;;6.40;99.90;;;;;;5077481;28;20083;-79
2021/03/10 08:11:37;;;;;;;44.85;28.33;;;6.50;99.90;;;;;;5075102;28;20048;-80
2021/03/10 08:14:04;;;;;;;47.78;28.42;;;6.50;99.90;;;;;;5077232;28;20135;-81
2021/03/10 08:16:42;;;;;;;44.78;26.75;;;6.50;99.90;;;;;;5078020;28;20524;-80
2021/03/10 08:19:10;;;;;;;44.88;28.42;;;6.60;99.90;;;;;;5079100;28;20191;-80
2021/03/10 08:21:46;;;;;;;46.40;28.10;;;6.60;99.90;;;;;;5081638;28;20055;-82
2021/03/10 08:24:13;;;;;;;50.60;27.73;;;6.70;99.90;;;;;;5077608;28;20094;-79
2021/03/10 08:26:40;;;;;;;46.97;28.27;;;6.70;99.90;;;;;;5073540;28;20054;-81
2021/03/10 08:29:07;;;;;;;51.88;29.35;;;6.70;99.90;;;;;;5076312;28;20063;-81
2021/03/10 08:31:44;;;;;;;48.20;28.17;;;6.70;99.90;;;;;;5062084;28;20053;-80
2021/03/10 08:34:11;;;;;;;50.83;28.95;;;6.80;99.90;;;;;;5077641;28;20087;-80
2021/03/10 08:36:38;;;;;;;48.05;27.48;;;6.80;99.90;;;;;;5067273;28;20076;-80
2021/03/10 08:39:13;;;;;;;50.08;28.35;;;6.70;99.90;;;;;;5071604;28;20066;-80
2021/03/10 08:41:47;;;;;;;50.97;28.67;;;6.70;99.90;;;;;;5077657;28;20155;-82
2021/03/10 08:44:14;;;;;;;49.50;29.88;;;6.80;99.90;;;;;;5080038;28;20056;-80
2021/03/10 08:46:43;;;;;;;45.38;28.75;;;6.80;99.90;;;;;;5078609;28;20075;-80
2021/03/10 08:49:28;;;;;;;47.67;28.38;;;6.90;99.90;;;;;;5080446;28;20131;-81
2021/03/10 08:52:06;;;;;;;49.20;29.10;;;7.00;99.90;;;;;;5076933;28;20153;-80
2021/03/10 08:54:43;;;;;;;47.28;28.25;;;7.20;99.90;;;;;;5075520;28;20150;-79
2021/03/10 08:57:10;;;;;;;48.75;28.40;;;7.30;99.90;;;;;;5074958;28;20437;-78
2021/03/10 08:59:37;;;;;;;47.05;27.75;;;7.40;99.90;;;;;;5074936;28;20512;-78
2021/03/10 09:02:04;;;;;;;46.95;27.23;;;7.50;99.90;;;;;;5076578;28;20079;-78
2021/03/10 09:04:32;;;;;;;48.05;27.55;;;7.60;99.90;;;;;;5074290;28;20171;-78
2021/03/10 09:07:00;;;;;;;48.88;28.38;;;7.60;99.90;;;;;;5074711;28;20106;-78
2021/03/10 09:09:27;;;;;;;49.83;29.10;;;7.60;99.90;;;;;;5076181;28;20051;-78
2021/03/10 09:11:56;;;;;;;46.55;28.77;;;7.40;99.90;;;;;;5076438;28;20053;-82
2021/03/10 09:14:23;;;;;;;48.78;28.70;;;7.50;99.90;;;;;;5078111;28;20048;-79
2021/03/10 09:16:53;;;;;;;47.95;28.55;;;7.50;99.90;;;;;;5077183;28;20135;-81
2021/03/10 09:19:31;;;;;;;46.50;28.77;;;7.60;99.90;;;;;;5078923;28;20071;-81
2021/03/10 09:22:20;;;;;;;52.33;29.77;;;7.70;99.90;;;;;;5077901;28;20053;-80
2021/03/10 09:24:51;;;;;;;47.95;27.20;;;7.80;99.90;;;;;;5072448;28;20080;-80
2021/03/10 09:27:19;;;;;;;53.20;31.35;;;7.90;99.90;;;;;;5077157;28;20327;-79
2021/03/10 09:29:48;;;;;;;52.17;29.88;;;8.10;99.90;;;;;;5078169;28;20162;-80
2021/03/10 09:32:15;;;;;;;47.22;28.33;;;8.10;99.90;;;;;;5076811;28;20167;-79
2021/03/10 09:34:46;;;;;;;45.35;27.08;;;8.10;99.90;;;;;;5076973;28;20063;-81
2021/03/10 09:37:13;;;;;;;48.03;29.10;;;8.20;99.90;;;;;;5078198;28;20064;-79
2021/03/10 09:39:41;;;;;;;49.33;30.17;;;8.30;99.90;;;;;;5079435;28;20080;-80
2021/03/10 09:42:08;;;;;;;51.42;31.63;;;8.30;99.90;;;;;;5080000;28;20083;-80
2021/03/10 09:44:45;;;;;;;51.00;28.25;;;8.40;99.90;;;;;;5080860;28;20084;-81
2021/03/10 09:47:21;;;;;;;44.78;29.20;;;8.50;99.90;;;;;;5081417;28;20076;-82
2021/03/10 09:49:51;;;;;;;47.20;30.20;;;8.60;99.90;;;;;;5077221;28;20045;-79
2021/03/10 09:52:19;;;;;;;47.88;29.92;;;8.60;99.90;;;;;;5075062;28;20052;-80
2021/03/10 09:54:50;;;;;;;48.88;30.50;;;8.70;99.90;;;;;;5076687;28;20060;-81
2021/03/10 09:57:24;;;;;;;51.33;29.95;;;8.70;99.90;;;;;;5083924;28;20080;-79
2021/03/10 09:59:51;;;;;;;48.22;30.20;;;8.70;99.90;;;;;;5080771;28;20049;-79
2021/03/10 10:02:18;;;;;;;45.72;30.65;;;8.70;99.90;;;;;;5080052;28;20076;-79
2021/03/10 10:04:49;;;;;;;51.85;30.00;;;8.70;99.90;;;;;;5079398;28;20084;-79
2021/03/10 10:07:17;;;;;;;49.60;31.13;;;8.70;99.90;;;;;;5079330;28;20063;-80
2021/03/10 10:09:43;;;;;;;49.13;29.70;;;8.80;99.90;;;;;;5079313;28;20543;-80
2021/03/10 10:12:10;;;;;;;51.65;31.05;;;8.90;99.90;;;;;;5078362;28;20143;-79
2021/03/10 10:14:37;;;;;;;46.47;28.38;;;9.00;99.90;;;;;;5081418;28;20135;-79
2021/03/10 10:17:05;;;;;;;49.60;29.63;;;9.20;99.90;;;;;;5078839;28;20060;-79
2021/03/10 10:19:31;;;;;;;49.05;31.42;;;9.30;99.90;;;;;;5078462;28;20136;-79
2021/03/10 10:21:58;;;;;;;50.17;30.88;;;9.40;99.90;;;;;;5077658;28;20048;-79
2021/03/10 10:24:25;;;;;;;52.75;30.20;;;9.50;99.90;;;;;;5079648;28;20076;-80
2021/03/10 10:26:52;;;;;;;43.88;28.90;;;9.70;99.90;;;;;;5081969;28;20084;-80
2021/03/10 10:29:21;;;;;;;45.15;27.30;;;9.90;99.90;;;;;;5083875;28;20048;-80
2021/03/10 10:31:48;;;;;;;43.55;27.40;;;10.00;99.90;;;;;;5083356;28;20064;-82
2021/03/10 10:34:14;;;;;;;43.58;28.13;;;10.20;99.90;;;;;;5083001;28;20053;-80
2021/03/10 10:36:41;;;;;;;40.20;26.38;;;10.40;99.90;;;;;;5082944;28;20552;-81
2021/03/10 10:39:08;;;;;;;41.45;27.33;;;10.60;99.90;;;;;;5083104;28;20076;-80
2021/03/10 10:41:35;;;;;;;41.05;26.80;;;10.70;99.90;;;;;;5081728;28;20076;-81
2021/03/10 10:44:02;;;;;;;43.88;26.17;;;10.90;99.90;;;;;;5080052;28;20056;-77
2021/03/10 10:46:46;;;;;;;42.63;25.25;;;10.90;99.90;;;;;;5087909;22;20054;-76
2021/03/10 10:49:15;;;;;;;39.95;25.83;;;10.90;99.90;;;;;;5070906;28;20094;-75
2021/03/10 10:51:43;;;;;;;34.25;24.58;;;10.90;99.90;;;;;;5069679;28;20052;-77
2021/03/10 10:54:11;;;;;;;33.72;22.70;;;10.90;99.90;;;;;;5070509;28;20469;-76
2021/03/10 10:56:41;;;;;;;34.92;22.70;;;10.90;99.90;;;;;;5070845;28;20106;-76
2021/03/10 10:59:08;;;;;;;30.52;20.17;;;11.10;99.90;;;;;;5070895;28;20087;-76
2021/03/10 11:01:34;;;;;;;34.55;23.20;;;11.20;99.90;;;;;;5070194;28;20052;-76
2021/03/10 11:04:01;;;;;;;32.25;22.52;;;11.30;99.90;;;;;;5069985;28;20125;-74
2021/03/10 11:06:27;;;;;;;31.77;21.95;;;11.30;99.90;;;;;;5070806;28;20142;-77
2021/03/10 11:08:53;;;;;;;30.05;21.65;;;11.30;99.90;;;;;;5070937;28;20099;-76
2021/03/10 11:11:20;;;;;;;31.10;21.17;;;11.40;99.90;;;;;;5070015;28;20056;-76
2021/03/10 11:13:47;;;;;;;25.40;18.77;;;11.60;99.90;;;;;;5070136;28;20128;-77
2021/03/10 11:16:13;;;;;;;29.58;16.90;;;11.60;99.90;;;;;;5070383;28;20483;-76
2021/03/10 11:18:39;;;;;;;22.85;17.42;;;11.70;99.90;;;;;;5071011;28;20140;-76
2021/03/10 11:21:06;;;;;;;23.55;17.05;;;11.80;99.90;;;;;;5070239;28;20055;-76
2021/03/10 11:23:32;;;;;;;22.35;15.93;;;11.80;99.90;;;;;;5070887;28;20386;-76
2021/03/10 11:26:01;;;;;;;19.08;13.85;;;11.90;99.90;;;;;;5070836;28;20492;-75
2021/03/10 11:28:27;;;;;;;20.60;14.85;;;12.00;99.90;;;;;;5070807;28;20425;-77
2021/03/10 11:30:54;;;;;;;20.02;14.70;;;11.90;99.90;;;;;;5070228;28;20131;-77
2021/03/10 11:33:21;;;;;;;19.33;13.93;;;11.90;99.90;;;;;;5070768;28;20049;-77
2021/03/10 11:35:47;;;;;;;20.77;14.75;;;11.90;99.90;;;;;;5071443;28;20087;-77
2021/03/10 11:38:14;;;;;;;17.95;12.70;;;12.00;99.90;;;;;;5071217;28;20083;-75
2021/03/10 11:40:41;;;;;;;16.23;12.27;;;12.10;99.90;;;;;;5070334;28;20055;-79
2021/03/10 11:43:07;;;;;;;18.38;11.63;;;12.20;99.90;;;;;;5069990;28;20112;-74
2021/03/10 11:45:34;;;;;;;21.65;12.98;;;12.30;99.90;;;;;;5071507;28;20143;-75
2021/03/10 11:48:01;;;;;;;22.23;13.57;;;12.30;99.90;;;;;;5071667;28;20048;-76
2021/03/10 11:50:27;;;;;;;16.25;12.02;;;12.50;99.90;;;;;;5070651;28;20127;-76
2021/03/10 11:52:54;;;;;;;18.52;12.63;;;12.60;99.90;;;;;;5070222;28;20109;-74
2021/03/10 11:55:22;;;;;;;16.42;12.48;;;12.60;99.90;;;;;;5071401;28;20064;-77
2021/03/10 11:57:48;;;;;;;18.80;12.48;;;12.60;99.90;;;;;;5071218;28;20056;-76
2021/03/10 12:00:15;;;;;;;17.35;12.20;;;12.60;99.90;;;;;;5069905;28;20052;-78
2021/03/10 12:02:42;;;;;;;13.85;9.45;;;12.60;99.90;;;;;;5071664;28;20044;-76
2021/03/10 12:05:10;;;;;;;23.50;10.98;;;12.70;99.90;;;;;;5075542;28;20149;-76
2021/03/10 12:07:37;;;;;;;15.60;10.60;;;12.90;99.90;;;;;;5075414;28;20104;-76
2021/03/10 12:10:04;;;;;;;11.88;9.23;;;12.80;99.90;;;;;;5089815;28;20152;-79
2021/03/10 12:12:30;;;;;;;16.05;10.23;;;12.80;99.90;;;;;;5094233;28;20047;-78
2021/03/10 12:14:56;;;;;;;17.98;10.15;;;12.90;99.90;;;;;;5093748;28;20048;-78
2021/03/10 12:17:23;;;;;;;13.75;9.73;;;13.00;99.90;;;;;;5076587;28;20538;-77
2021/03/10 12:19:49;;;;;;;13.60;9.40;;;13.10;99.90;;;;;;5076026;28;20135;-76
2021/03/10 12:22:16;;;;;;;14.52;10.60;;;13.10;99.90;;;;;;5074593;28;20112;-76
2021/03/10 12:24:45;;;;;;;14.75;10.63;;;13.10;99.90;;;;;;5074479;28;20136;-77
2021/03/10 12:27:12;;;;;;;16.63;10.23;;;13.00;99.90;;;;;;5074116;28;20533;-77
2021/03/10 12:29:38;;;;;;;15.10;10.77;;;13.00;99.90;;;;;;5074772;28;20051;-76
2021/03/10 12:32:05;;;;;;;16.65;11.82;;;13.00;99.90;;;;;;5074152;28;20049;-76
2021/03/10 12:34:31;;;;;;;15.30;11.52;;;13.00;99.90;;;;;;5073995;28;20582;-76
2021/03/10 12:36:58;;;;;;;19.25;12.63;;;12.90;99.90;;;;;;5073915;28;20091;-76
2021/03/10 12:39:25;;;;;;;17.80;11.82;;;12.90;99.90;;;;;;5074758;28;20049;-76
2021/03/10 12:41:51;;;;;;;17.38;11.70;;;12.90;99.90;;;;;;5074230;28;20079;-77